createdAt,value
2023-02-15T00:01:50.367Z,20.13
2023-02-15T00:04:23.768Z,20.55
2023-02-15T00:06:51.371Z,21.73
2023-02-15T00:09:18.252Z,17.77
2023-02-15T00:11:50.987Z,16.70
2023-02-15T00:14:23.127Z,20.98
2023-02-15T00:16:52.360Z,18.30
2023-02-15T00:19:21.311Z,22.08
2023-02-15T00:21:49.380Z,19.83
2023-02-15T00:24:18.447Z,17.90
2023-02-15T00:26:46.903Z,20.50
2023-02-15T00:29:15.603Z,22.17
2023-02-15T00:31:43.385Z,22.83
2023-02-15T00:34:16.795Z,22.65
2023-02-15T00:36:44.892Z,21.15
2023-02-15T00:39:12.323Z,22.25
2023-02-15T00:41:39.762Z,21.67
2023-02-15T00:44:07.811Z,23.25
2023-02-15T00:46:35.675Z,22.40
2023-02-15T00:49:03.696Z,21.38
2023-02-15T00:51:31.687Z,19.08
2023-02-15T00:53:58.566Z,21.27
2023-02-15T00:56:25.550Z,19.92
2023-02-15T00:58:52.598Z,23.83
2023-02-15T01:01:22.541Z,20.08
2023-02-15T01:03:51.770Z,23.27
2023-02-15T01:06:19.415Z,21.90
2023-02-15T01:08:48.672Z,22.40
2023-02-15T01:11:23.335Z,20.90
2023-02-15T01:13:53.425Z,20.85
2023-02-15T01:16:20.637Z,23.35
2023-02-15T01:18:49.015Z,23.33
2023-02-15T01:21:18.975Z,26.45
2023-02-15T01:23:46.866Z,28.92
2023-02-15T01:26:14.854Z,31.80
2023-02-15T01:28:44.715Z,30.52
2023-02-15T01:31:18.075Z,30.27
2023-02-15T01:33:47.001Z,31.75
2023-02-15T01:36:15.295Z,34.90
2023-02-15T01:38:45.058Z,36.50
2023-02-15T01:41:23.871Z,31.25
2023-02-15T01:43:54.095Z,30.45
2023-02-15T01:46:25.997Z,30.90
2023-02-15T01:48:58.109Z,29.92
2023-02-15T01:51:30.551Z,24.02
2023-02-15T01:54:12.197Z,23.40
2023-02-15T01:56:40.901Z,23.27
2023-02-15T01:59:15.945Z,24.48
2023-02-15T02:01:43.634Z,21.95
2023-02-15T02:04:18.042Z,25.38
2023-02-15T02:06:49.080Z,23.05
2023-02-15T02:09:16.245Z,20.80
2023-02-15T02:11:47.490Z,22.88
2023-02-15T02:14:15.423Z,22.48
2023-02-15T02:16:57.343Z,21.02
2023-02-15T02:19:47.598Z,19.13
2023-02-15T02:22:29.771Z,22.65
2023-02-15T02:25:24.788Z,21.17
2023-02-15T02:28:23.875Z,24.67
2023-02-15T02:31:03.189Z,23.42
2023-02-15T02:34:27.685Z,22.98
2023-02-15T02:37:25.804Z,22.75
2023-02-15T02:40:29.588Z,25.52
2023-02-15T02:43:12.165Z,26.92
2023-02-15T02:45:46.774Z,21.52
2023-02-15T02:48:19.883Z,23.38
2023-02-15T02:50:49.724Z,26.58
2023-02-15T02:53:17.318Z,22.55
2023-02-15T02:55:59.923Z,27.15
2023-02-15T02:58:40.469Z,23.67
2023-02-15T03:01:19.834Z,25.92
2023-02-15T03:04:06.638Z,24.20
2023-02-15T03:07:22.989Z,23.08
2023-02-15T03:09:54.229Z,24.17
2023-02-15T03:12:26.026Z,24.63
2023-02-15T03:15:03.471Z,25.20
2023-02-15T03:17:34.548Z,25.08
2023-02-15T03:20:08.339Z,27.67
2023-02-15T03:22:42.184Z,23.95
2023-02-15T03:25:21.007Z,22.50
2023-02-15T03:27:52.735Z,22.58
2023-02-15T03:30:23.074Z,23.88
2023-02-15T03:32:51.977Z,24.92
2023-02-15T03:35:23.384Z,20.58
2023-02-15T03:38:00.040Z,23.35
2023-02-15T03:40:57.751Z,23.15
2023-02-15T03:43:45.954Z,23.13
2023-02-15T03:46:41.236Z,26.10
2023-02-15T03:49:12.809Z,23.00
2023-02-15T03:51:43.374Z,26.85
2023-02-15T03:54:35.339Z,28.65
2023-02-15T03:57:21.927Z,25.80
2023-02-15T04:02:52.892Z,26.75
2023-02-15T04:05:19.899Z,27.42
2023-02-15T04:07:47.016Z,29.92
2023-02-15T04:10:32.652Z,28.73
2023-02-15T04:12:59.601Z,30.35
2023-02-15T04:15:45.071Z,31.13
2023-02-15T04:18:12.121Z,33.10
2023-02-15T04:20:57.938Z,33.28
2023-02-15T04:23:43.584Z,32.72
2023-02-15T04:26:10.573Z,31.30
2023-02-15T04:28:37.543Z,28.52
2023-02-15T04:31:04.609Z,30.65
2023-02-15T04:33:31.576Z,34.17
2023-02-15T04:35:58.530Z,36.78
2023-02-15T04:38:25.551Z,38.50
2023-02-15T04:40:53.137Z,35.55
2023-02-15T04:43:20.912Z,39.70
2023-02-15T04:45:51.856Z,38.40
2023-02-15T04:48:19.248Z,40.03
2023-02-15T04:50:46.404Z,41.28
2023-02-15T04:53:13.507Z,39.08
2023-02-15T04:55:40.581Z,37.42
2023-02-15T04:58:07.620Z,39.20
2023-02-15T05:00:34.674Z,42.72
2023-02-15T05:03:01.742Z,41.78
2023-02-15T05:05:28.884Z,40.25
2023-02-15T05:07:55.995Z,41.33
2023-02-15T05:10:23.201Z,38.08
2023-02-15T05:12:50.282Z,38.03
2023-02-15T05:15:17.508Z,35.40
2023-02-15T05:17:44.566Z,38.88
2023-02-15T05:20:11.694Z,41.50
2023-02-15T05:22:38.695Z,39.78
2023-02-15T05:25:41.375Z,39.08
2023-02-15T05:28:22.491Z,38.97
2023-02-15T05:30:52.008Z,41.95
2023-02-15T05:33:19.345Z,40.28
2023-02-15T05:35:46.310Z,43.95
2023-02-15T05:38:13.249Z,43.30
2023-02-15T05:40:40.245Z,39.40
2023-02-15T05:43:07.421Z,41.20
2023-02-15T05:45:34.509Z,39.22
2023-02-15T05:48:01.722Z,43.17
2023-02-15T05:50:28.940Z,40.55
2023-02-15T05:52:58.772Z,38.05
2023-02-15T05:55:25.776Z,42.55
2023-02-15T05:57:52.791Z,43.45
2023-02-15T06:00:20.432Z,41.42
2023-02-15T06:02:47.580Z,43.05
2023-02-15T06:05:14.955Z,43.33
2023-02-15T06:07:45.723Z,42.53
2023-02-15T06:10:12.844Z,44.33
2023-02-15T06:12:39.815Z,42.05
2023-02-15T06:15:07.228Z,42.60
2023-02-15T06:17:34.565Z,40.63
2023-02-15T06:20:01.791Z,39.75
2023-02-15T06:22:28.960Z,45.13
2023-02-15T06:24:55.946Z,40.53
2023-02-15T06:27:24.010Z,40.97
2023-02-15T06:29:51.061Z,40.88
2023-02-15T06:32:18.075Z,39.85
2023-02-15T06:34:45.138Z,37.30
2023-02-15T06:37:12.253Z,37.95
2023-02-15T06:39:39.230Z,38.88
2023-02-15T06:42:06.150Z,38.30
2023-02-15T06:44:33.169Z,36.88
2023-02-15T06:47:00.075Z,36.63
2023-02-15T06:49:30.088Z,38.05
2023-02-15T06:51:57.134Z,37.58
2023-02-15T06:54:24.138Z,39.45
2023-02-15T06:56:51.077Z,36.45
2023-02-15T06:59:18.037Z,38.85
2023-02-15T07:01:45.113Z,39.85
2023-02-15T07:04:12.057Z,38.15
2023-02-15T07:06:39.037Z,40.88
2023-02-15T07:09:06.245Z,36.70
2023-02-15T07:11:51.690Z,36.58
2023-02-15T07:14:18.782Z,35.30
2023-02-15T07:16:45.703Z,33.08
2023-02-15T07:19:12.715Z,37.63
2023-02-15T07:21:39.687Z,35.08
2023-02-15T07:24:07.064Z,31.45
2023-02-15T07:26:34.055Z,33.17
2023-02-15T07:29:01.044Z,31.25
2023-02-15T07:31:28.195Z,30.33
2023-02-15T07:33:55.173Z,30.75
2023-02-15T07:36:22.465Z,30.00
2023-02-15T07:38:49.454Z,31.17
2023-02-15T07:41:17.190Z,28.65
2023-02-15T07:43:46.264Z,29.35
2023-02-15T07:46:16.284Z,29.35
2023-02-15T07:48:45.273Z,31.13
2023-02-15T07:51:13.508Z,25.33
2023-02-15T07:53:40.652Z,28.13
2023-02-15T07:56:13.265Z,26.83
2023-02-15T07:58:52.596Z,26.98
2023-02-15T08:01:32.799Z,25.33
2023-02-15T08:04:00.228Z,25.98
2023-02-15T08:06:30.720Z,25.17
2023-02-15T08:08:57.874Z,23.55
2023-02-15T08:11:27.391Z,23.65
2023-02-15T08:14:03.495Z,22.42
2023-02-15T08:16:30.543Z,23.08
2023-02-15T08:18:59.097Z,22.38
2023-02-15T08:21:30.331Z,22.55
2023-02-15T08:23:58.499Z,22.77
2023-02-15T08:26:26.311Z,22.92
2023-02-15T08:28:53.532Z,22.20
2023-02-15T08:31:21.791Z,22.05
2023-02-15T08:33:50.824Z,21.70
2023-02-15T08:36:20.570Z,21.30
2023-02-15T08:38:48.679Z,20.80
2023-02-15T08:41:19.961Z,20.88
2023-02-15T08:43:52.878Z,21.25
2023-02-15T08:46:20.392Z,21.13
2023-02-15T08:48:48.109Z,20.23
2023-02-15T08:51:18.556Z,22.50
2023-02-15T08:53:50.201Z,19.35
2023-02-15T08:56:19.493Z,18.10
2023-02-15T08:58:46.584Z,20.48
2023-02-15T09:01:20.883Z,19.13
2023-02-15T09:03:50.395Z,17.77
2023-02-15T09:06:18.380Z,20.65
2023-02-15T09:08:45.761Z,19.63
2023-02-15T09:11:23.847Z,22.05
2023-02-15T09:13:57.095Z,17.88
2023-02-15T09:16:25.959Z,19.23
2023-02-15T09:18:53.566Z,19.13
2023-02-15T09:21:23.103Z,18.25
2023-02-15T09:23:51.826Z,16.08
2023-02-15T09:26:24.135Z,16.65
2023-02-15T09:28:56.688Z,17.77
2023-02-15T09:31:26.652Z,17.15
2023-02-15T09:33:55.055Z,16.92
2023-02-15T09:36:27.663Z,17.30
2023-02-15T09:39:04.846Z,17.08
2023-02-15T09:41:35.057Z,15.23
2023-02-15T09:44:33.324Z,17.25
2023-02-15T09:47:03.481Z,15.68
2023-02-15T09:49:52.287Z,16.65
2023-02-15T09:52:56.973Z,17.73
2023-02-15T09:55:57.398Z,14.77
2023-02-15T09:58:37.359Z,16.25
2023-02-15T10:01:16.582Z,16.15
2023-02-15T10:03:50.254Z,15.60
2023-02-15T10:06:36.334Z,17.20
2023-02-15T10:09:18.883Z,15.73
2023-02-15T10:12:09.150Z,17.27
2023-02-15T10:15:05.704Z,17.02
2023-02-15T10:18:05.411Z,16.70
2023-02-15T10:20:57.844Z,17.65
2023-02-15T10:23:34.016Z,18.17
2023-02-15T10:26:26.124Z,18.75
2023-02-15T10:28:56.435Z,17.77
2023-02-15T10:31:33.567Z,18.83
2023-02-15T10:34:17.555Z,18.05
2023-02-15T10:37:03.076Z,21.20
2023-02-15T10:39:46.348Z,18.42
2023-02-15T10:42:27.617Z,21.45
2023-02-15T10:45:29.544Z,18.35
2023-02-15T10:48:26.038Z,20.55
2023-02-15T10:53:49.348Z,21.83
2023-02-15T10:56:34.238Z,18.42
2023-02-15T10:59:16.229Z,19.17
2023-02-15T11:01:49.426Z,18.85
2023-02-15T11:04:25.574Z,20.50
2023-02-15T11:06:57.635Z,21.60
2023-02-15T11:09:30.796Z,17.85
2023-02-15T11:12:01.578Z,20.35
2023-02-15T11:14:44.812Z,20.77
2023-02-15T11:17:16.933Z,19.23
2023-02-15T11:20:03.829Z,20.83
2023-02-15T11:22:34.415Z,18.35
2023-02-15T11:25:03.577Z,22.20
2023-02-15T11:27:36.809Z,21.60
2023-02-15T11:30:14.493Z,21.13
2023-02-15T11:32:45.634Z,18.23
2023-02-15T11:35:12.979Z,19.08
2023-02-15T11:37:58.684Z,17.55
2023-02-15T11:40:37.043Z,19.23
2023-02-15T11:43:18.743Z,18.40
2023-02-15T11:45:47.469Z,19.50
2023-02-15T11:48:16.072Z,20.25
2023-02-15T11:50:45.225Z,17.98
2023-02-15T11:53:19.086Z,21.58
2023-02-15T11:55:48.235Z,20.27
2023-02-15T11:58:47.976Z,19.95
2023-02-15T12:01:20.809Z,20.40
2023-02-15T12:03:58.827Z,22.30
2023-02-15T12:06:29.815Z,20.63
2023-02-15T12:09:26.947Z,20.55
2023-02-15T12:11:53.971Z,21.42
2023-02-15T12:14:21.383Z,20.55
2023-02-15T12:16:52.100Z,20.27
2023-02-15T12:19:37.440Z,19.58
2023-02-15T12:22:08.675Z,20.17
2023-02-15T12:24:46.416Z,22.48
2023-02-15T12:27:19.785Z,19.67
2023-02-15T12:29:50.032Z,19.48
2023-02-15T12:32:25.966Z,22.02
2023-02-15T12:35:01.676Z,19.33
2023-02-15T12:40:01.429Z,20.40
2023-02-15T12:42:41.646Z,21.13
2023-02-15T12:45:36.653Z,22.15
2023-02-15T12:48:20.223Z,20.00
2023-02-15T12:50:55.317Z,19.85
2023-02-15T12:53:31.348Z,20.42
2023-02-15T12:56:01.053Z,19.27
2023-02-15T12:58:33.660Z,20.60
2023-02-15T13:01:20.477Z,18.45
2023-02-15T13:03:59.181Z,17.98
2023-02-15T13:06:28.185Z,17.33
2023-02-15T13:08:59.822Z,20.38
2023-02-15T13:11:38.887Z,20.83
2023-02-15T13:14:17.746Z,18.80
2023-02-15T13:16:47.274Z,19.08
2023-02-15T13:19:18.403Z,20.98
2023-02-15T13:21:48.936Z,22.08
2023-02-15T13:24:21.961Z,19.92
2023-02-15T13:26:49.620Z,19.70
2023-02-15T13:29:29.055Z,20.33
2023-02-15T13:32:02.714Z,18.77
2023-02-15T13:34:41.141Z,16.77
2023-02-15T13:37:35.628Z,18.58
2023-02-15T13:40:21.245Z,16.85
2023-02-15T13:43:03.349Z,17.85
2023-02-15T13:45:31.707Z,18.98
2023-02-15T13:48:16.713Z,17.77
2023-02-15T13:51:18.126Z,19.33
2023-02-15T13:54:13.891Z,20.17
2023-02-15T13:57:18.742Z,18.43
2023-02-15T14:00:15.316Z,17.33
2023-02-15T14:03:05.150Z,16.75
2023-02-15T14:06:16.019Z,17.95
2023-02-15T14:08:58.348Z,20.35
2023-02-15T14:11:37.387Z,19.10
2023-02-15T14:14:13.808Z,18.63
2023-02-15T14:17:06.276Z,18.52
2023-02-15T14:19:37.571Z,18.17
2023-02-15T14:22:12.604Z,18.50
2023-02-15T14:25:19.609Z,19.58
2023-02-15T14:28:14.371Z,20.02
2023-02-15T14:30:46.607Z,18.08
2023-02-15T14:33:50.793Z,19.80
2023-02-15T14:36:20.644Z,16.55
2023-02-15T14:39:37.623Z,19.27
2023-02-15T14:42:31.108Z,17.10
2023-02-15T14:45:27.418Z,17.40
2023-02-15T14:48:14.237Z,18.33
2023-02-15T14:50:45.250Z,17.98
2023-02-15T14:53:24.844Z,21.77
2023-02-15T14:56:18.544Z,19.52
2023-02-15T14:58:53.212Z,20.80
2023-02-15T15:01:37.469Z,19.13
2023-02-15T15:04:12.836Z,18.40
2023-02-15T15:06:43.364Z,18.25
2023-02-15T15:09:36.224Z,18.35
2023-02-15T15:12:22.091Z,22.08
2023-02-15T15:14:50.714Z,19.83
2023-02-15T15:17:41.148Z,19.05
2023-02-15T15:20:38.353Z,21.08
2023-02-15T15:23:37.760Z,19.65
2023-02-15T15:26:29.011Z,20.70
2023-02-15T15:29:00.024Z,19.63
2023-02-15T15:31:30.408Z,18.58
2023-02-15T15:34:37.119Z,20.88
2023-02-15T15:37:29.597Z,19.67
2023-02-15T15:40:21.929Z,21.38
2023-02-15T15:43:10.170Z,18.30
2023-02-15T15:45:55.935Z,22.45
2023-02-15T15:48:34.564Z,23.92
2023-02-15T15:51:25.473Z,22.40
2023-02-15T15:53:54.651Z,19.45
2023-02-15T15:56:29.088Z,25.00
2023-02-15T15:59:04.016Z,22.08
2023-02-15T16:01:37.067Z,21.50
2023-02-15T16:04:04.271Z,25.27
2023-02-15T16:06:35.248Z,23.85
2023-02-15T16:09:12.232Z,27.20
2023-02-15T16:11:40.809Z,31.75
2023-02-15T16:14:29.926Z,32.25
2023-02-15T16:17:00.477Z,31.52
2023-02-15T16:19:40.550Z,31.30
2023-02-15T16:22:20.486Z,29.80
2023-02-15T16:25:25.062Z,33.20
2023-02-15T16:27:52.753Z,35.83
2023-02-15T16:30:33.437Z,38.80
2023-02-15T16:33:17.917Z,33.75
2023-02-15T16:35:57.007Z,33.13
2023-02-15T16:38:43.811Z,33.78
2023-02-15T16:41:17.142Z,32.08
2023-02-15T16:43:48.004Z,37.95
2023-02-15T16:46:40.872Z,32.85
2023-02-15T16:49:26.107Z,39.20
2023-02-15T16:52:01.985Z,34.65
2023-02-15T16:54:30.953Z,39.40
2023-02-15T16:56:59.154Z,38.72
2023-02-15T16:59:40.667Z,37.90
2023-02-15T17:02:32.038Z,37.55
2023-02-15T17:05:08.972Z,41.30
2023-02-15T17:08:03.094Z,38.10
2023-02-15T17:10:33.898Z,38.75
2023-02-15T17:13:19.111Z,39.60
2023-02-15T17:16:06.602Z,41.05
2023-02-15T17:18:39.262Z,43.85
2023-02-15T17:21:19.725Z,39.75
2023-02-15T17:23:52.243Z,48.40
2023-02-15T17:26:26.104Z,42.53
2023-02-15T17:28:57.863Z,42.45
2023-02-15T17:31:33.902Z,47.50
2023-02-15T17:34:02.404Z,42.75
2023-02-15T17:36:33.138Z,39.10
2023-02-15T17:39:00.234Z,33.38
2023-02-15T17:41:30.194Z,39.20
2023-02-15T17:43:57.578Z,31.77
2023-02-15T17:46:27.756Z,33.90
2023-02-15T17:48:56.989Z,33.83
2023-02-15T17:51:25.047Z,33.33
2023-02-15T17:54:10.656Z,35.10
2023-02-15T17:56:40.110Z,36.33
2023-02-15T17:59:07.741Z,37.45
2023-02-15T18:01:57.183Z,36.38
2023-02-15T18:04:44.061Z,32.28
2023-02-15T18:07:31.966Z,33.40
2023-02-15T18:10:18.556Z,33.78
2023-02-15T18:12:45.795Z,38.47
2023-02-15T18:15:14.171Z,30.25
2023-02-15T18:17:46.459Z,37.63
2023-02-15T18:20:25.152Z,44.13
2023-02-15T18:22:53.050Z,38.67
2023-02-15T18:25:24.330Z,48.42
2023-02-15T18:27:54.869Z,42.08
2023-02-15T18:30:26.296Z,40.30
2023-02-15T18:32:58.842Z,42.22
2023-02-15T18:35:32.195Z,49.45
2023-02-15T18:38:02.222Z,46.45
2023-02-15T18:40:29.817Z,45.80
2023-02-15T18:42:57.512Z,45.38
2023-02-15T18:45:28.777Z,43.78
2023-02-15T18:47:56.199Z,39.72
2023-02-15T18:50:28.211Z,40.28
2023-02-15T18:52:55.444Z,41.22
2023-02-15T18:55:25.377Z,41.42
2023-02-15T18:57:55.434Z,51.88
2023-02-15T19:00:32.473Z,52.30
2023-02-15T19:03:01.602Z,45.72
2023-02-15T19:05:30.898Z,42.08
2023-02-15T19:07:59.922Z,43.67
2023-02-15T19:10:30.489Z,50.33
2023-02-15T19:12:57.846Z,51.50
2023-02-15T19:15:27.898Z,48.92
2023-02-15T19:17:55.263Z,52.40
2023-02-15T19:20:31.443Z,51.08
2023-02-15T19:23:00.564Z,46.08
2023-02-15T19:25:33.267Z,46.30
2023-02-15T19:28:06.163Z,44.13
2023-02-15T19:30:33.551Z,39.75
2023-02-15T19:33:02.213Z,39.15
2023-02-15T19:35:33.752Z,38.22
2023-02-15T19:38:05.928Z,42.38
2023-02-15T19:40:35.687Z,43.35
2023-02-15T19:43:04.006Z,43.97
2023-02-15T19:45:32.793Z,46.58
2023-02-15T19:48:03.492Z,49.50
2023-02-15T19:50:34.308Z,40.08
2023-02-15T19:53:02.637Z,42.95
2023-02-15T19:55:34.651Z,44.30
2023-02-15T19:58:02.603Z,43.20
2023-02-15T20:00:34.228Z,48.22
2023-02-15T20:03:01.543Z,43.67
2023-02-15T20:05:30.609Z,39.85
2023-02-15T20:07:58.617Z,44.70
2023-02-15T20:10:31.649Z,43.08
2023-02-15T20:12:59.521Z,45.55
2023-02-15T20:15:29.022Z,47.85
2023-02-15T20:17:57.587Z,49.13
2023-02-15T20:20:31.123Z,49.53
2023-02-15T20:22:58.381Z,45.92
2023-02-15T20:25:27.941Z,44.28
2023-02-15T20:27:55.814Z,44.70
2023-02-15T20:30:27.097Z,47.35
2023-02-15T20:32:55.065Z,43.45
2023-02-15T20:35:24.852Z,45.47
2023-02-15T20:37:54.829Z,39.67
2023-02-15T20:40:28.240Z,39.20
2023-02-15T20:42:55.392Z,35.83
2023-02-15T20:45:28.571Z,38.60
2023-02-15T20:47:56.960Z,38.50
2023-02-15T20:50:27.586Z,36.92
2023-02-15T20:52:56.791Z,38.95
2023-02-15T20:55:27.105Z,38.10
2023-02-15T20:57:54.218Z,37.60
2023-02-15T21:00:27.336Z,40.47
2023-02-15T21:02:59.350Z,35.55
2023-02-15T21:05:33.409Z,38.60
2023-02-15T21:08:00.574Z,38.90
2023-02-15T21:10:30.360Z,35.92
2023-02-15T21:12:59.734Z,35.95
2023-02-15T21:15:33.846Z,37.22
2023-02-15T21:18:07.084Z,35.63
2023-02-15T21:20:46.202Z,32.90
2023-02-15T21:23:16.057Z,36.13
2023-02-15T21:25:44.692Z,37.58
2023-02-15T21:28:18.702Z,34.00
2023-02-15T21:30:46.321Z,34.15
2023-02-15T21:33:13.383Z,34.42
2023-02-15T21:35:40.847Z,33.25
2023-02-15T21:38:10.867Z,34.45
2023-02-15T21:40:38.000Z,34.53
2023-02-15T21:43:31.749Z,32.78
2023-02-15T21:46:28.498Z,33.28
2023-02-15T21:48:55.426Z,30.10
2023-02-15T21:51:41.093Z,31.80
2023-02-15T21:54:13.003Z,31.05
2023-02-15T21:56:43.347Z,28.90
2023-02-15T21:59:15.877Z,33.75
2023-02-15T22:01:48.048Z,29.90
2023-02-15T22:04:27.721Z,31.27
2023-02-15T22:06:55.641Z,30.25
2023-02-15T22:09:25.544Z,34.08
2023-02-15T22:11:54.556Z,35.15
2023-02-15T22:14:30.951Z,30.10
2023-02-15T22:16:58.075Z,33.33
2023-02-15T22:19:25.146Z,26.83
2023-02-15T22:21:52.390Z,32.17
2023-02-15T22:24:19.479Z,28.48
2023-02-15T22:26:46.781Z,32.60
2023-02-15T22:29:17.352Z,47.05
2023-02-15T22:31:45.302Z,58.40
2023-02-15T22:34:32.515Z,64.85
2023-02-15T22:36:59.538Z,47.10
2023-02-15T22:39:26.782Z,43.50
2023-02-15T22:41:54.928Z,41.30
2023-02-15T22:44:29.030Z,38.58
2023-02-15T22:46:56.407Z,36.75
2023-02-15T22:49:23.440Z,34.58
2023-02-15T22:51:51.483Z,42.30
2023-02-15T22:54:19.855Z,42.22
2023-02-15T22:56:52.459Z,37.45
2023-02-15T22:59:28.419Z,43.00
2023-02-15T23:04:26.216Z,41.55
2023-02-15T23:06:55.232Z,80.85
2023-02-15T23:09:22.542Z,123.32
2023-02-15T23:11:51.489Z,93.75
2023-02-15T23:14:35.454Z,58.38
2023-02-15T23:17:03.070Z,40.55
2023-02-15T23:19:30.078Z,33.78
2023-02-15T23:21:57.131Z,29.95
2023-02-15T23:24:28.222Z,30.48
2023-02-15T23:27:16.092Z,28.70
2023-02-15T23:29:43.243Z,32.83
2023-02-15T23:32:13.414Z,28.48
2023-02-15T23:34:41.686Z,33.53
2023-02-15T23:37:13.375Z,31.90
2023-02-15T23:39:58.926Z,27.50
2023-02-15T23:42:31.801Z,31.23
2023-02-15T23:44:58.916Z,30.33
2023-02-15T23:47:48.942Z,31.70
2023-02-15T23:50:26.083Z,32.42
2023-02-15T23:52:54.960Z,32.80
2023-02-15T23:55:22.828Z,31.45
2023-02-15T23:57:50.277Z,31.90
